sensor_id;sensor_type;location;lat;lon;timestamp;pressure;altitude;pressure_sealevel;temperature;humidity
46379;BME280;32084;42.254;22.744;2023-12-14T00:00:19;94259.13;;;7.47;92.90
46379;BME280;32084;42.254;22.744;2023-12-14T00:02:45;94257.28;;;7.31;93.55
46379;BME280;32084;42.254;22.744;2023-12-14T00:05:11;94244.16;;;7.29;93.43
46379;BME280;32084;42.254;22.744;2023-12-14T00:07:37;94252.94;;;7.21;93.94
46379;BME280;32084;42.254;22.744;2023-12-14T00:10:03;94252.59;;;7.16;94.56
46379;BME280;32084;42.254;22.744;2023-12-14T00:12:30;94246.63;;;7.14;94.21
46379;BME280;32084;42.254;22.744;2023-12-14T00:14:57;94256.06;;;7.17;94.35
46379;BME280;32084;42.254;22.744;2023-12-14T00:17:23;94251.63;;;7.17;94.74
46379;BME280;32084;42.254;22.744;2023-12-14T00:19:49;94252.38;;;7.01;96.39
46379;BME280;32084;42.254;22.744;2023-12-14T00:22:15;94248.53;;;6.96;96.33
46379;BME280;32084;42.254;22.744;2023-12-14T00:24:41;94249.50;;;6.87;96.56
46379;BME280;32084;42.254;22.744;2023-12-14T00:27:07;94250.88;;;6.91;96.23
46379;BME280;32084;42.254;22.744;2023-12-14T00:29:34;94258.19;;;6.89;96.24
46379;BME280;32084;42.254;22.744;2023-12-14T00:32:00;94244.69;;;6.82;96.67
46379;BME280;32084;42.254;22.744;2023-12-14T00:34:26;94249.25;;;6.63;97.40
46379;BME280;32084;42.254;22.744;2023-12-14T00:36:52;94242.00;;;6.39;98.35
46379;BME280;32084;42.254;22.744;2023-12-14T00:39:18;94242.09;;;6.30;98.79
46379;BME280;32084;42.254;22.744;2023-12-14T00:41:44;94248.53;;;6.19;100.00
46379;BME280;32084;42.254;22.744;2023-12-14T00:44:09;94251.53;;;6.24;99.96
46379;BME280;32084;42.254;22.744;2023-12-14T00:46:35;94263.03;;;6.33;98.97
46379;BME280;32084;42.254;22.744;2023-12-14T00:49:01;94256.16;;;6.22;99.30
46379;BME280;32084;42.254;22.744;2023-12-14T00:51:28;94273.47;;;6.26;99.18
46379;BME280;32084;42.254;22.744;2023-12-14T00:53:53;94273.81;;;6.31;99.14
46379;BME280;32084;42.254;22.744;2023-12-14T00:56:19;94269.22;;;6.15;99.38
46379;BME280;32084;42.254;22.744;2023-12-14T00:58:45;94270.06;;;6.16;100.00
46379;BME280;32084;42.254;22.744;2023-12-14T01:01:11;94274.81;;;6.30;99.49
46379;BME280;32084;42.254;22.744;2023-12-14T01:03:37;94274.53;;;6.41;96.75
46379;BME280;32084;42.254;22.744;2023-12-14T01:06:03;94278.19;;;6.40;96.62
46379;BME280;32084;42.254;22.744;2023-12-14T01:08:30;94265.38;;;6.36;96.37
46379;BME280;32084;42.254;22.744;2023-12-14T01:10:55;94259.59;;;6.40;96.22
46379;BME280;32084;42.254;22.744;2023-12-14T01:13:21;94262.88;;;6.34;96.19
46379;BME280;32084;42.254;22.744;2023-12-14T01:15:47;94266.22;;;6.36;96.67
46379;BME280;32084;42.254;22.744;2023-12-14T01:18:13;94260.75;;;6.38;96.49
46379;BME280;32084;42.254;22.744;2023-12-14T01:20:40;94258.66;;;6.23;96.27
46379;BME280;32084;42.254;22.744;2023-12-14T01:23:06;94255.22;;;6.31;97.06
46379;BME280;32084;42.254;22.744;2023-12-14T01:25:32;94254.13;;;6.42;96.09
46379;BME280;32084;42.254;22.744;2023-12-14T01:27:58;94257.88;;;6.31;95.63
46379;BME280;32084;42.254;22.744;2023-12-14T01:30:24;94268.88;;;6.36;95.53
46379;BME280;32084;42.254;22.744;2023-12-14T01:32:50;94247.63;;;6.36;96.02
46379;BME280;32084;42.254;22.744;2023-12-14T01:35:15;94262.91;;;6.42;96.74
46379;BME280;32084;42.254;22.744;2023-12-14T01:37:41;94248.53;;;6.19;96.62
46379;BME280;32084;42.254;22.744;2023-12-14T01:40:08;94258.75;;;6.14;97.21
46379;BME280;32084;42.254;22.744;2023-12-14T01:42:34;94258.88;;;6.30;96.29
46379;BME280;32084;42.254;22.744;2023-12-14T01:45:00;94244.16;;;6.36;95.29
46379;BME280;32084;42.254;22.744;2023-12-14T01:47:26;94251.91;;;6.29;94.37
46379;BME280;32084;42.254;22.744;2023-12-14T01:49:51;94252.97;;;6.18;94.67
46379;BME280;32084;42.254;22.744;2023-12-14T01:52:17;94242.16;;;6.12;95.20
46379;BME280;32084;42.254;22.744;2023-12-14T01:54:43;94235.84;;;6.13;96.41
46379;BME280;32084;42.254;22.744;2023-12-14T01:57:09;94236.38;;;6.16;95.34
46379;BME280;32084;42.254;22.744;2023-12-14T01:59:35;94225.06;;;6.06;97.14
46379;BME280;32084;42.254;22.744;2023-12-14T02:02:01;94241.00;;;5.88;98.34
46379;BME280;32084;42.254;22.744;2023-12-14T02:04:28;94231.13;;;5.98;97.47
46379;BME280;32084;42.254;22.744;2023-12-14T02:06:54;94231.06;;;5.90;97.02
46379;BME280;32084;42.254;22.744;2023-12-14T02:09:20;94230.97;;;5.82;97.80
46379;BME280;32084;42.254;22.744;2023-12-14T02:11:46;94215.00;;;5.74;96.37
46379;BME280;32084;42.254;22.744;2023-12-14T02:14:12;94220.03;;;5.77;98.15
46379;BME280;32084;42.254;22.744;2023-12-14T02:16:38;94214.41;;;5.98;97.67
46379;BME280;32084;42.254;22.744;2023-12-14T02:19:05;94200.66;;;6.02;96.36
46379;BME280;32084;42.254;22.744;2023-12-14T02:21:31;94207.41;;;5.97;95.05
46379;BME280;32084;42.254;22.744;2023-12-14T02:23:57;94203.75;;;5.54;95.73
46379;BME280;32084;42.254;22.744;2023-12-14T02:26:23;94199.53;;;5.43;97.66
46379;BME280;32084;42.254;22.744;2023-12-14T02:28:49;94195.19;;;5.42;97.40
46379;BME280;32084;42.254;22.744;2023-12-14T02:31:15;94202.91;;;5.53;97.21
46379;BME280;32084;42.254;22.744;2023-12-14T02:33:41;94198.53;;;5.62;96.64
46379;BME280;32084;42.254;22.744;2023-12-14T02:36:07;94194.19;;;5.61;96.31
46379;BME280;32084;42.254;22.744;2023-12-14T02:38:33;94214.88;;;5.57;96.76
46379;BME280;32084;42.254;22.744;2023-12-14T02:40:59;94205.81;;;5.60;96.76
46379;BME280;32084;42.254;22.744;2023-12-14T02:43:25;94201.31;;;5.42;96.96
46379;BME280;32084;42.254;22.744;2023-12-14T02:45:51;94204.09;;;5.15;98.01
46379;BME280;32084;42.254;22.744;2023-12-14T02:48:17;94197.72;;;5.07;100.00
46379;BME280;32084;42.254;22.744;2023-12-14T02:50:43;94207.88;;;5.30;99.06
46379;BME280;32084;42.254;22.744;2023-12-14T02:53:09;94205.75;;;5.34;99.64
46379;BME280;32084;42.254;22.744;2023-12-14T02:55:34;94197.84;;;5.06;99.54
46379;BME280;32084;42.254;22.744;2023-12-14T02:58:00;94198.63;;;5.16;100.00
46379;BME280;32084;42.254;22.744;2023-12-14T03:00:26;94204.00;;;5.24;99.56
46379;BME280;32084;42.254;22.744;2023-12-14T03:02:52;94193.91;;;5.10;98.61
46379;BME280;32084;42.254;22.744;2023-12-14T03:05:18;94186.59;;;5.22;98.57
46379;BME280;32084;42.254;22.744;2023-12-14T03:07:44;94199.31;;;5.18;99.57
46379;BME280;32084;42.254;22.744;2023-12-14T03:10:10;94196.00;;;5.16;100.00
46379;BME280;32084;42.254;22.744;2023-12-14T03:12:36;94194.78;;;5.11;100.00
46379;BME280;32084;42.254;22.744;2023-12-14T03:15:02;94196.72;;;5.44;100.00
46379;BME280;32084;42.254;22.744;2023-12-14T03:17:28;94200.31;;;5.61;98.98
46379;BME280;32084;42.254;22.744;2023-12-14T03:19:54;94188.06;;;5.60;98.49
46379;BME280;32084;42.254;22.744;2023-12-14T03:22:20;94185.41;;;5.60;98.85
46379;BME280;32084;42.254;22.744;2023-12-14T03:24:46;94188.13;;;5.68;98.89
46379;BME280;32084;42.254;22.744;2023-12-14T03:27:12;94200.06;;;5.73;98.07
46379;BME280;32084;42.254;22.744;2023-12-14T03:29:38;94201.50;;;5.41;98.80
46379;BME280;32084;42.254;22.744;2023-12-14T03:32:04;94209.75;;;5.38;99.84
46379;BME280;32084;42.254;22.744;2023-12-14T03:34:30;94198.53;;;5.44;99.73
46379;BME280;32084;42.254;22.744;2023-12-14T03:36:56;94217.44;;;5.67;100.00
46379;BME280;32084;42.254;22.744;2023-12-14T03:39:22;94203.16;;;6.04;99.83
46379;BME280;32084;42.254;22.744;2023-12-14T03:41:48;94203.19;;;6.12;99.60
46379;BME280;32084;42.254;22.744;2023-12-14T03:44:14;94200.06;;;6.17;100.00
46379;BME280;32084;42.254;22.744;2023-12-14T03:46:40;94210.34;;;6.20;99.11
46379;BME280;32084;42.254;22.744;2023-12-14T03:49:06;94209.00;;;6.16;98.55
46379;BME280;32084;42.254;22.744;2023-12-14T03:51:32;94199.22;;;6.16;98.74
46379;BME280;32084;42.254;22.744;2023-12-14T03:53:58;94190.34;;;5.99;99.57
46379;BME280;32084;42.254;22.744;2023-12-14T03:56:23;94182.63;;;6.14;98.75
46379;BME280;32084;42.254;22.744;2023-12-14T03:58:49;94188.81;;;6.23;97.72
46379;BME280;32084;42.254;22.744;2023-12-14T04:01:19;94186.69;;;6.27;97.70
46379;BME280;32084;42.254;22.744;2023-12-14T04:03:45;94179.50;;;6.19;98.07
46379;BME280;32084;42.254;22.744;2023-12-14T04:06:14;94180.06;;;5.78;97.66
46379;BME280;32084;42.254;22.744;2023-12-14T04:08:40;94181.47;;;5.64;99.21
46379;BME280;32084;42.254;22.744;2023-12-14T04:11:06;94192.53;;;5.60;99.86
46379;BME280;32084;42.254;22.744;2023-12-14T04:13:33;94182.41;;;5.81;99.19
46379;BME280;32084;42.254;22.744;2023-12-14T04:15:59;94182.16;;;5.93;99.83
46379;BME280;32084;42.254;22.744;2023-12-14T04:18:25;94181.28;;;6.10;97.66
46379;BME280;32084;42.254;22.744;2023-12-14T04:20:51;94191.72;;;6.03;96.71
46379;BME280;32084;42.254;22.744;2023-12-14T04:23:17;94184.06;;;6.00;96.97
46379;BME280;32084;42.254;22.744;2023-12-14T04:25:43;94186.94;;;5.89;97.24
46379;BME280;32084;42.254;22.744;2023-12-14T04:28:09;94188.78;;;5.71;99.34
46379;BME280;32084;42.254;22.744;2023-12-14T04:30:35;94186.13;;;5.71;99.47
46379;BME280;32084;42.254;22.744;2023-12-14T04:33:01;94187.94;;;5.88;97.91
46379;BME280;32084;42.254;22.744;2023-12-14T04:35:27;94195.66;;;5.81;98.66
46379;BME280;32084;42.254;22.744;2023-12-14T04:37:53;94187.88;;;5.98;98.04
46379;BME280;32084;42.254;22.744;2023-12-14T04:40:19;94191.53;;;5.79;99.26
46379;BME280;32084;42.254;22.744;2023-12-14T04:42:45;94201.19;;;5.88;97.33
46379;BME280;32084;42.254;22.744;2023-12-14T04:45:11;94179.66;;;6.17;99.39
46379;BME280;32084;42.254;22.744;2023-12-14T04:47:38;94186.41;;;6.38;98.92
46379;BME280;32084;42.254;22.744;2023-12-14T04:50:04;94188.28;;;6.11;96.45
46379;BME280;32084;42.254;22.744;2023-12-14T04:52:30;94201.09;;;6.24;97.46
46379;BME280;32084;42.254;22.744;2023-12-14T04:54:56;94200.34;;;6.05;97.83
46379;BME280;32084;42.254;22.744;2023-12-14T04:57:22;94206.84;;;5.93;97.67
46379;BME280;32084;42.254;22.744;2023-12-14T04:59:48;94207.78;;;5.84;99.19
46379;BME280;32084;42.254;22.744;2023-12-14T05:02:14;94199.94;;;5.74;100.00
46379;BME280;32084;42.254;22.744;2023-12-14T05:04:40;94201.03;;;5.90;98.82
46379;BME280;32084;42.254;22.744;2023-12-14T05:07:06;94199.66;;;6.03;98.25
46379;BME280;32084;42.254;22.744;2023-12-14T05:09:32;94205.56;;;5.97;97.70
46379;BME280;32084;42.254;22.744;2023-12-14T05:11:58;94206.69;;;5.95;97.89
46379;BME280;32084;42.254;22.744;2023-12-14T05:14:24;94215.63;;;5.94;98.06
46379;BME280;32084;42.254;22.744;2023-12-14T05:16:50;94211.63;;;6.08;97.10
46379;BME280;32084;42.254;22.744;2023-12-14T05:19:17;94212.75;;;5.79;94.95
46379;BME280;32084;42.254;22.744;2023-12-14T05:21:43;94208.00;;;5.46;100.00
46379;BME280;32084;42.254;22.744;2023-12-14T05:24:09;94213.00;;;5.67;100.00
46379;BME280;32084;42.254;22.744;2023-12-14T05:26:35;94206.03;;;5.93;99.19
46379;BME280;32084;42.254;22.744;2023-12-14T05:29:01;94210.34;;;5.94;97.95
46379;BME280;32084;42.254;22.744;2023-12-14T05:31:27;94203.47;;;5.83;97.45
46379;BME280;32084;42.254;22.744;2023-12-14T05:33:53;94197.06;;;5.94;97.28
46379;BME280;32084;42.254;22.744;2023-12-14T05:36:19;94205.44;;;5.99;96.79
46379;BME280;32084;42.254;22.744;2023-12-14T05:38:45;94210.06;;;5.97;97.50
46379;BME280;32084;42.254;22.744;2023-12-14T05:41:11;94209.59;;;5.83;98.50
46379;BME280;32084;42.254;22.744;2023-12-14T05:43:37;94210.72;;;5.55;97.76
46379;BME280;32084;42.254;22.744;2023-12-14T05:46:03;94218.28;;;5.50;99.53
46379;BME280;32084;42.254;22.744;2023-12-14T05:48:29;94217.41;;;5.41;100.00
46379;BME280;32084;42.254;22.744;2023-12-14T05:50:56;94221.09;;;5.66;100.00
46379;BME280;32084;42.254;22.744;2023-12-14T05:53:22;94232.09;;;5.97;99.06
46379;BME280;32084;42.254;22.744;2023-12-14T05:55:48;94213.75;;;6.04;97.67
46379;BME280;32084;42.254;22.744;2023-12-14T05:58:14;94223.25;;;5.89;97.43
46379;BME280;32084;42.254;22.744;2023-12-14T06:00:40;94225.91;;;5.71;97.51
46379;BME280;32084;42.254;22.744;2023-12-14T06:03:06;94227.78;;;5.52;98.31
46379;BME280;32084;42.254;22.744;2023-12-14T06:05:32;94235.03;;;5.50;99.53
46379;BME280;32084;42.254;22.744;2023-12-14T06:07:58;94226.34;;;5.58;99.37
46379;BME280;32084;42.254;22.744;2023-12-14T06:10:24;94235.22;;;5.75;99.19
46379;BME280;32084;42.254;22.744;2023-12-14T06:12:50;94234.25;;;5.76;98.88
46379;BME280;32084;42.254;22.744;2023-12-14T06:15:16;94244.34;;;5.72;98.84
46379;BME280;32084;42.254;22.744;2023-12-14T06:17:42;94252.88;;;5.84;98.37
46379;BME280;32084;42.254;22.744;2023-12-14T06:20:08;94253.06;;;5.82;99.10
46379;BME280;32084;42.254;22.744;2023-12-14T06:22:37;94254.09;;;5.90;98.59
46379;BME280;32084;42.254;22.744;2023-12-14T06:25:03;94255.00;;;5.80;99.82
46379;BME280;32084;42.254;22.744;2023-12-14T06:27:30;94261.06;;;5.91;99.51
46379;BME280;32084;42.254;22.744;2023-12-14T06:29:56;94260.25;;;5.72;98.58
46379;BME280;32084;42.254;22.744;2023-12-14T06:32:22;94259.34;;;5.81;99.73
46379;BME280;32084;42.254;22.744;2023-12-14T06:34:48;94250.97;;;5.94;98.43
46379;BME280;32084;42.254;22.744;2023-12-14T06:37:14;94252.53;;;6.23;96.67
46379;BME280;32084;42.254;22.744;2023-12-14T06:39:40;94250.31;;;6.18;97.24
46379;BME280;32084;42.254;22.744;2023-12-14T06:42:06;94259.47;;;6.24;97.38
46379;BME280;32084;42.254;22.744;2023-12-14T06:44:32;94261.34;;;6.32;97.12
46379;BME280;32084;42.254;22.744;2023-12-14T06:46:59;94275.06;;;6.45;96.49
46379;BME280;32084;42.254;22.744;2023-12-14T06:49:25;94269.94;;;6.25;97.34
46379;BME280;32084;42.254;22.744;2023-12-14T06:51:51;94273.88;;;6.39;96.80
46379;BME280;32084;42.254;22.744;2023-12-14T06:54:17;94282.00;;;6.72;97.09
46379;BME280;32084;42.254;22.744;2023-12-14T06:56:43;94289.69;;;6.83;95.79
46379;BME280;32084;42.254;22.744;2023-12-14T06:59:09;94287.59;;;6.95;95.74
46379;BME280;32084;42.254;22.744;2023-12-14T07:01:35;94283.97;;;7.04;95.41
46379;BME280;32084;42.254;22.744;2023-12-14T07:04:01;94299.09;;;7.12;95.64
46379;BME280;32084;42.254;22.744;2023-12-14T07:06:29;94296.25;;;7.06;96.79
46379;BME280;32084;42.254;22.744;2023-12-14T07:08:55;94293.88;;;6.94;98.87
46379;BME280;32084;42.254;22.744;2023-12-14T07:11:21;94298.47;;;7.18;97.23
46379;BME280;32084;42.254;22.744;2023-12-14T07:13:47;94294.53;;;7.47;95.18
46379;BME280;32084;42.254;22.744;2023-12-14T07:16:14;94292.53;;;7.49;95.41
46379;BME280;32084;42.254;22.744;2023-12-14T07:18:43;94286.41;;;7.57;95.94
46379;BME280;32084;42.254;22.744;2023-12-14T07:21:09;94288.94;;;7.67;95.16
46379;BME280;32084;42.254;22.744;2023-12-14T07:23:36;94292.78;;;7.72;96.20
46379;BME280;32084;42.254;22.744;2023-12-14T07:26:02;94281.47;;;7.87;94.45
46379;BME280;32084;42.254;22.744;2023-12-14T07:28:29;94282.16;;;7.97;94.85
46379;BME280;32084;42.254;22.744;2023-12-14T07:30:55;94289.63;;;8.01;95.94
46379;BME280;32084;42.254;22.744;2023-12-14T07:33:21;94289.59;;;8.10;95.06
46379;BME280;32084;42.254;22.744;2023-12-14T07:35:47;94304.28;;;8.14;95.99
46379;BME280;32084;42.254;22.744;2023-12-14T07:38:13;94306.25;;;8.28;95.02
46379;BME280;32084;42.254;22.744;2023-12-14T07:40:39;94307.59;;;8.40;93.51
46379;BME280;32084;42.254;22.744;2023-12-14T07:43:06;94305.94;;;8.56;94.27
46379;BME280;32084;42.254;22.744;2023-12-14T07:45:32;94312.06;;;8.65;93.61
46379;BME280;32084;42.254;22.744;2023-12-14T07:47:59;94300.91;;;8.69;93.83
46379;BME280;32084;42.254;22.744;2023-12-14T07:50:25;94296.56;;;8.68;92.38
46379;BME280;32084;42.254;22.744;2023-12-14T07:52:51;94294.34;;;8.88;92.65
46379;BME280;32084;42.254;22.744;2023-12-14T07:55:18;94300.75;;;9.18;90.81
46379;BME280;32084;42.254;22.744;2023-12-14T07:57:44;94288.94;;;9.44;89.90
46379;BME280;32084;42.254;22.744;2023-12-14T08:00:10;94283.09;;;9.41;90.72
46379;BME280;32084;42.254;22.744;2023-12-14T08:02:36;94288.59;;;9.47;90.19
46379;BME280;32084;42.254;22.744;2023-12-14T08:05:03;94284.72;;;9.50;89.45
46379;BME280;32084;42.254;22.744;2023-12-14T08:07:30;94281.88;;;9.51;89.58
46379;BME280;32084;42.254;22.744;2023-12-14T08:09:56;94274.84;;;9.58;89.19
46379;BME280;32084;42.254;22.744;2023-12-14T08:12:23;94285.63;;;9.65;89.54
46379;BME280;32084;42.254;22.744;2023-12-14T08:14:50;94276.06;;;9.79;88.98
46379;BME280;32084;42.254;22.744;2023-12-14T08:17:16;94274.91;;;9.73;90.22
46379;BME280;32084;42.254;22.744;2023-12-14T08:19:42;94273.56;;;9.77;90.21
46379;BME280;32084;42.254;22.744;2023-12-14T08:22:08;94283.50;;;9.84;89.86
46379;BME280;32084;42.254;22.744;2023-12-14T08:24:37;94294.91;;;9.77;89.91
46379;BME280;32084;42.254;22.744;2023-12-14T08:27:03;94287.41;;;9.73;90.24
46379;BME280;32084;42.254;22.744;2023-12-14T08:29:29;94281.44;;;9.71;90.17
46379;BME280;32084;42.254;22.744;2023-12-14T08:31:55;94275.66;;;9.59;90.54
46379;BME280;32084;42.254;22.744;2023-12-14T08:34:23;94278.28;;;9.67;90.69
46379;BME280;32084;42.254;22.744;2023-12-14T08:36:49;94282.22;;;9.80;90.68
46379;BME280;32084;42.254;22.744;2023-12-14T08:39:15;94267.31;;;9.85;90.77
46379;BME280;32084;42.254;22.744;2023-12-14T08:41:41;94251.59;;;9.90;90.37
46379;BME280;32084;42.254;22.744;2023-12-14T08:44:07;94241.75;;;9.91;89.74
46379;BME280;32084;42.254;22.744;2023-12-14T08:46:40;94245.16;;;10.00;90.25
46379;BME280;32084;42.254;22.744;2023-12-14T08:52:05;94236.00;;;10.02;90.63
46379;BME280;32084;42.254;22.744;2023-12-14T08:54:31;94234.59;;;10.06;89.37
46379;BME280;32084;42.254;22.744;2023-12-14T08:56:57;94228.91;;;10.09;89.59
46379;BME280;32084;42.254;22.744;2023-12-14T08:59:24;94229.44;;;10.05;89.68
46379;BME280;32084;42.254;22.744;2023-12-14T09:01:50;94232.03;;;10.13;89.92
46379;BME280;32084;42.254;22.744;2023-12-14T09:04:16;94226.34;;;10.16;89.98
46379;BME280;32084;42.254;22.744;2023-12-14T09:06:42;94216.38;;;10.33;89.71
46379;BME280;32084;42.254;22.744;2023-12-14T09:09:10;94210.59;;;10.21;89.30
46379;BME280;32084;42.254;22.744;2023-12-14T09:11:36;94203.13;;;10.40;88.12
46379;BME280;32084;42.254;22.744;2023-12-14T09:14:02;94211.22;;;10.46;86.47
46379;BME280;32084;42.254;22.744;2023-12-14T09:16:28;94222.00;;;10.53;84.77
46379;BME280;32084;42.254;22.744;2023-12-14T09:18:54;94230.19;;;10.37;85.09
46379;BME280;32084;42.254;22.744;2023-12-14T09:21:20;94241.06;;;10.35;85.71
46379;BME280;32084;42.254;22.744;2023-12-14T09:23:46;94235.19;;;10.40;86.64
46379;BME280;32084;42.254;22.744;2023-12-14T09:26:13;94236.59;;;10.27;87.32
46379;BME280;32084;42.254;22.744;2023-12-14T09:28:39;94234.88;;;10.34;88.08
46379;BME280;32084;42.254;22.744;2023-12-14T09:31:05;94246.88;;;10.39;88.22
46379;BME280;32084;42.254;22.744;2023-12-14T09:33:31;94234.63;;;10.44;88.82
46379;BME280;32084;42.254;22.744;2023-12-14T09:35:57;94241.81;;;10.44;89.47
46379;BME280;32084;42.254;22.744;2023-12-14T09:38:23;94240.50;;;10.54;88.88
46379;BME280;32084;42.254;22.744;2023-12-14T09:40:49;94233.44;;;10.62;88.40
46379;BME280;32084;42.254;22.744;2023-12-14T09:43:15;94235.47;;;10.60;88.36
46379;BME280;32084;42.254;22.744;2023-12-14T09:45:41;94230.13;;;10.74;86.83
46379;BME280;32084;42.254;22.744;2023-12-14T09:48:10;94213.97;;;10.83;85.47
46379;BME280;32084;42.254;22.744;2023-12-14T09:50:37;94208.53;;;10.91;84.73
46379;BME280;32084;42.254;22.744;2023-12-14T09:53:04;94210.19;;;10.92;85.19
46379;BME280;32084;42.254;22.744;2023-12-14T09:55:30;94217.47;;;10.98;84.86
46379;BME280;32084;42.254;22.744;2023-12-14T09:57:57;94216.34;;;11.07;84.54
46379;BME280;32084;42.254;22.744;2023-12-14T10:00:32;94222.97;;;11.11;85.14
46379;BME280;32084;42.254;22.744;2023-12-14T10:03:15;94217.72;;;11.18;84.28
46379;BME280;32084;42.254;22.744;2023-12-14T10:05:43;94225.53;;;11.35;82.95
46379;BME280;32084;42.254;22.744;2023-12-14T10:08:09;94222.38;;;11.46;82.55
46379;BME280;32084;42.254;22.744;2023-12-14T10:10:35;94227.50;;;11.47;81.97
46379;BME280;32084;42.254;22.744;2023-12-14T10:13:01;94220.13;;;11.49;82.38
46379;BME280;32084;42.254;22.744;2023-12-14T10:15:27;94215.63;;;11.50;81.35
46379;BME280;32084;42.254;22.744;2023-12-14T10:17:53;94232.75;;;11.56;81.74
46379;BME280;32084;42.254;22.744;2023-12-14T10:20:20;94224.16;;;11.60;81.63
46379;BME280;32084;42.254;22.744;2023-12-14T10:22:49;94237.72;;;11.59;81.92
46379;BME280;32084;42.254;22.744;2023-12-14T10:25:17;94232.19;;;11.60;81.45
46379;BME280;32084;42.254;22.744;2023-12-14T10:27:46;94244.56;;;11.61;81.42
46379;BME280;32084;42.254;22.744;2023-12-14T10:30:12;94239.22;;;11.61;81.19
46379;BME280;32084;42.254;22.744;2023-12-14T10:32:38;94233.22;;;11.59;82.22
46379;BME280;32084;42.254;22.744;2023-12-14T10:35:06;94243.81;;;11.67;80.17
46379;BME280;32084;42.254;22.744;2023-12-14T10:37:33;94244.88;;;11.73;80.03
46379;BME280;32084;42.254;22.744;2023-12-14T10:40:04;94231.94;;;11.77;81.07
46379;BME280;32084;42.254;22.744;2023-12-14T10:42:31;94238.31;;;11.76;81.18
46379;BME280;32084;42.254;22.744;2023-12-14T10:44:57;94247.44;;;11.81;79.54
46379;BME280;32084;42.254;22.744;2023-12-14T10:47:25;94241.91;;;11.83;80.00
46379;BME280;32084;42.254;22.744;2023-12-14T10:49:52;94237.63;;;11.88;79.56
46379;BME280;32084;42.254;22.744;2023-12-14T10:52:19;94242.88;;;11.97;78.95
46379;BME280;32084;42.254;22.744;2023-12-14T10:54:49;94241.72;;;12.06;80.09
46379;BME280;32084;42.254;22.744;2023-12-14T10:57:18;94245.13;;;12.15;77.80
46379;BME280;32084;42.254;22.744;2023-12-14T10:59:44;94245.78;;;12.23;78.92
46379;BME280;32084;42.254;22.744;2023-12-14T11:02:10;94244.00;;;12.30;78.98
46379;BME280;32084;42.254;22.744;2023-12-14T11:04:55;94238.63;;;12.30;78.30
46379;BME280;32084;42.254;22.744;2023-12-14T11:15:13;94234.00;;;11.96;80.39
46379;BME280;32084;42.254;22.744;2023-12-14T11:17:40;94243.88;;;12.17;80.72
46379;BME280;32084;42.254;22.744;2023-12-14T11:20:24;94241.06;;;12.25;80.50
46379;BME280;32084;42.254;22.744;2023-12-14T11:22:50;94233.16;;;12.39;77.80
46379;BME280;32084;42.254;22.744;2023-12-14T11:25:16;94225.44;;;12.57;76.54
46379;BME280;32084;42.254;22.744;2023-12-14T11:27:43;94235.59;;;12.68;77.27
46379;BME280;32084;42.254;22.744;2023-12-14T11:30:10;94234.19;;;12.73;79.07
46379;BME280;32084;42.254;22.744;2023-12-14T11:32:37;94231.13;;;12.76;79.19
46379;BME280;32084;42.254;22.744;2023-12-14T11:35:03;94225.78;;;12.82;79.25
46379;BME280;32084;42.254;22.744;2023-12-14T11:37:29;94225.78;;;12.82;79.01
46379;BME280;32084;42.254;22.744;2023-12-14T11:39:55;94221.09;;;12.91;76.80
46379;BME280;32084;42.254;22.744;2023-12-14T11:42:22;94215.22;;;13.09;74.62
46379;BME280;32084;42.254;22.744;2023-12-14T11:44:47;94216.28;;;13.21;74.35
46379;BME280;32084;42.254;22.744;2023-12-14T11:47:13;94219.78;;;13.22;77.28
46379;BME280;32084;42.254;22.744;2023-12-14T11:49:39;94218.97;;;13.21;77.48
46379;BME280;32084;42.254;22.744;2023-12-14T11:52:05;94219.41;;;13.25;76.24
46379;BME280;32084;42.254;22.744;2023-12-14T11:54:31;94214.84;;;13.25;76.27
46379;BME280;32084;42.254;22.744;2023-12-14T11:57:01;94211.97;;;13.27;76.00
46379;BME280;32084;42.254;22.744;2023-12-14T11:59:27;94205.34;;;13.23;75.68
46379;BME280;32084;42.254;22.744;2023-12-14T12:02:02;94209.50;;;13.25;76.62
46379;BME280;32084;42.254;22.744;2023-12-14T12:04:28;94212.88;;;13.34;77.17
46379;BME280;32084;42.254;22.744;2023-12-14T12:07:01;94211.19;;;13.33;76.06
46379;BME280;32084;42.254;22.744;2023-12-14T12:09:34;94209.56;;;13.32;76.55
46379;BME280;32084;42.254;22.744;2023-12-14T12:12:00;94214.03;;;13.25;76.53
46379;BME280;32084;42.254;22.744;2023-12-14T12:14:27;94222.22;;;13.03;78.27
46379;BME280;32084;42.254;22.744;2023-12-14T12:16:53;94225.84;;;12.89;79.71
46379;BME280;32084;42.254;22.744;2023-12-14T12:19:19;94226.44;;;12.84;79.78
46379;BME280;32084;42.254;22.744;2023-12-14T12:21:45;94218.72;;;12.75;80.74
46379;BME280;32084;42.254;22.744;2023-12-14T12:24:11;94224.25;;;12.66;81.10
46379;BME280;32084;42.254;22.744;2023-12-14T12:26:37;94220.78;;;12.73;80.49
46379;BME280;32084;42.254;22.744;2023-12-14T12:29:03;94219.38;;;12.77;80.19
46379;BME280;32084;42.254;22.744;2023-12-14T12:31:31;94222.63;;;12.72;80.46
46379;BME280;32084;42.254;22.744;2023-12-14T12:33:59;94220.78;;;12.73;80.64
46379;BME280;32084;42.254;22.744;2023-12-14T12:36:25;94215.41;;;12.73;80.56
46379;BME280;32084;42.254;22.744;2023-12-14T12:38:50;94217.91;;;12.74;81.86
46379;BME280;32084;42.254;22.744;2023-12-14T12:41:16;94221.03;;;12.78;80.92
46379;BME280;32084;42.254;22.744;2023-12-14T12:43:43;94218.94;;;12.73;81.27
46379;BME280;32084;42.254;22.744;2023-12-14T12:46:09;94226.16;;;12.73;80.60
46379;BME280;32084;42.254;22.744;2023-12-14T12:48:36;94230.69;;;12.72;80.71
46379;BME280;32084;42.254;22.744;2023-12-14T12:51:02;94229.69;;;12.80;79.54
46379;BME280;32084;42.254;22.744;2023-12-14T12:53:28;94226.63;;;12.83;79.00
46379;BME280;32084;42.254;22.744;2023-12-14T12:55:54;94239.63;;;12.86;77.01
46379;BME280;32084;42.254;22.744;2023-12-14T12:58:20;94238.56;;;12.80;78.17
46379;BME280;32084;42.254;22.744;2023-12-14T13:00:46;94243.94;;;12.80;78.77
46379;BME280;32084;42.254;22.744;2023-12-14T13:03:12;94246.88;;;12.85;78.14